Time;durP1;ratioP1;P1;durP2;ratioP2;P2;SDS_P1;SDS_P2;PMS_P1;PMS_P2;Temp;Humidity;BMP_temperature;BMP_pressure;BME280_temperature;BME280_humidity;BME280_pressure;Samples;Min_cycle;Max_cycle;Signal;HPM_P1;HPM_P2
2022/03/19 00:00:17;;;;;;;25.25;14.95;;;;;;;-1.45;45.78;97222.59;5048037;28;20392;-68
2022/03/19 00:02:43;;;;;;;20.40;13.38;;;;;;;-1.42;45.17;97245.44;5047855;28;20033;-65
2022/03/19 00:05:09;;;;;;;27.40;15.38;;;;;;;-1.50;45.89;97233.47;5047721;28;20032;-67
2022/03/19 00:07:40;;;;;;;23.10;14.27;;;;;;;-1.54;45.69;97236.78;5047969;28;20036;-65
2022/03/19 00:10:08;;;;;;;26.42;16.00;;;;;;;-1.55;46.13;97244.34;5048024;28;20117;-68
2022/03/19 00:12:40;;;;;;;23.60;14.38;;;;;;;-1.67;45.84;97223.03;5047897;28;20422;-68
2022/03/19 00:15:07;;;;;;;24.63;13.93;;;;;;;-1.49;45.64;97247.00;5047637;28;20045;-68
2022/03/19 00:17:33;;;;;;;19.45;12.30;;;;;;;-1.90;45.01;97168.59;5047318;28;20075;-66
2022/03/19 00:19:58;;;;;;;19.58;11.23;;;;;;;-1.48;44.02;97231.84;5047457;28;20064;-65
2022/03/19 00:22:24;;;;;;;19.02;10.70;;;;;;;-1.52;44.42;97222.47;5047987;28;20021;-65
2022/03/19 00:24:49;;;;;;;20.38;11.80;;;;;;;-1.49;43.62;97229.28;5048022;28;20386;-69
2022/03/19 00:27:15;;;;;;;18.83;11.68;;;;;;;-1.43;45.11;97226.84;5048067;28;20021;-66
2022/03/19 00:29:40;;;;;;;21.30;12.75;;;;;;;-1.46;45.01;97234.38;5047593;28;20025;-67
2022/03/19 00:32:06;;;;;;;19.92;12.88;;;;;;;-1.60;45.00;97187.72;5047768;28;20151;-66
2022/03/19 00:34:32;;;;;;;26.75;13.30;;;;;;;-1.51;45.49;97224.19;5047952;28;20043;-65
2022/03/19 00:36:58;;;;;;;23.05;14.52;;;;;;;-1.51;45.52;97230.91;5047938;28;20029;-67
2022/03/19 00:39:24;;;;;;;29.02;18.35;;;;;;;-1.80;46.73;97199.94;5048029;28;20435;-65
2022/03/19 00:41:50;;;;;;;36.60;19.80;;;;;;;-1.85;47.69;97215.06;5047333;28;20518;-69
2022/03/19 00:44:16;;;;;;;32.83;20.65;;;;;;;-2.07;48.13;97189.28;5047822;28;20033;-64
2022/03/19 00:46:41;;;;;;;35.50;20.50;;;;;;;-1.56;47.48;97232.50;5047711;28;20072;-68
2022/03/19 00:49:06;;;;;;;35.33;20.05;;;;;;;-1.60;48.04;97234.13;5047860;28;20056;-69
2022/03/19 00:51:32;;;;;;;32.83;20.27;;;;;;;-1.62;47.91;97228.19;5047909;28;20459;-67
2022/03/19 00:53:58;;;;;;;39.05;21.55;;;;;;;-1.70;47.51;97222.09;5047381;28;20151;-68
2022/03/19 00:56:23;;;;;;;34.40;22.15;;;;;;;-1.72;48.29;97232.19;5047868;28;20021;-66
2022/03/19 00:58:49;;;;;;;33.15;19.15;;;;;;;-1.95;48.79;97221.59;5047598;28;20025;-67
2022/03/19 01:01:15;;;;;;;31.30;19.33;;;;;;;-2.11;48.16;97202.72;5047582;28;20033;-66
2022/03/19 01:03:40;;;;;;;31.33;19.17;;;;;;;-1.95;48.28;97243.47;5047661;28;20033;-68
2022/03/19 01:06:06;;;;;;;35.83;19.55;;;;;;;-1.93;48.17;97241.88;5047161;28;20033;-68
2022/03/19 01:08:31;;;;;;;26.75;16.58;;;;;;;-2.07;48.97;97239.88;5047490;28;20116;-67
2022/03/19 01:10:57;;;;;;;29.65;18.27;;;;;;;-2.11;48.67;97238.09;5047565;28;20029;-67
2022/03/19 01:13:22;;;;;;;33.95;17.05;;;;;;;-2.16;49.41;97229.56;5047329;28;20045;-66
2022/03/19 01:15:47;;;;;;;25.05;15.75;;;;;;;-2.46;49.12;97199.38;5047670;28;20487;-67
2022/03/19 01:18:13;;;;;;;26.88;16.90;;;;;;;-2.31;49.18;97245.25;5047584;28;20511;-67
2022/03/19 01:20:39;;;;;;;26.80;15.98;;;;;;;-2.31;48.97;97240.19;5047460;28;20037;-67
2022/03/19 01:23:05;;;;;;;20.92;14.57;;;;;;;-2.30;48.68;97235.97;5047339;28;20033;-67
2022/03/19 01:25:30;;;;;;;26.55;15.73;;;;;;;-2.42;48.47;97216.34;5047437;28;20078;-66
2022/03/19 01:27:56;;;;;;;26.02;15.32;;;;;;;-2.33;48.73;97230.84;5047198;28;20025;-66
2022/03/19 01:30:22;;;;;;;24.50;14.93;;;;;;;-2.38;49.02;97227.38;5047001;28;20475;-67
2022/03/19 01:32:49;;;;;;;25.83;14.32;;;;;;;-2.49;49.17;97224.56;5049635;28;20056;-64
2022/03/19 01:35:16;;;;;;;26.63;15.98;;;;;;;-2.53;49.79;97220.28;5050653;28;20438;-66
2022/03/19 01:37:42;;;;;;;28.85;16.38;;;;;;;-2.54;49.68;97223.63;5050768;28;20478;-67
2022/03/19 01:40:10;;;;;;;26.67;15.02;;;;;;;-2.49;49.60;97219.53;5050257;28;20124;-66
2022/03/19 01:42:37;;;;;;;26.75;15.90;;;;;;;-2.37;49.52;97213.91;5050806;28;20028;-68
2022/03/19 01:45:05;;;;;;;25.17;14.73;;;;;;;-2.52;49.78;97207.69;5050710;28;20039;-67
2022/03/19 01:47:31;;;;;;;22.15;14.43;;;;;;;-2.53;50.00;97211.03;5050435;28;20110;-67
2022/03/19 01:49:57;;;;;;;24.42;15.40;;;;;;;-2.90;50.32;97174.81;5050874;28;20391;-67
2022/03/19 01:52:25;;;;;;;26.08;14.32;;;;;;;-2.62;50.53;97218.41;5050024;28;20052;-64
2022/03/19 01:54:52;;;;;;;25.13;14.85;;;;;;;-2.60;50.39;97212.56;5050318;28;20021;-67
2022/03/19 01:57:21;;;;;;;26.48;14.55;;;;;;;-2.60;50.07;97191.50;5050604;28;20047;-67
2022/03/19 01:59:48;;;;;;;23.33;13.77;;;;;;;-2.58;50.48;97215.13;5050224;28;20021;-68
2022/03/19 02:02:14;;;;;;;21.50;13.77;;;;;;;-3.09;50.28;97134.78;5050184;28;20087;-65
2022/03/19 02:04:41;;;;;;;24.02;14.65;;;;;;;-2.69;50.26;97188.75;5049607;28;20519;-66
2022/03/19 02:07:09;;;;;;;23.70;14.27;;;;;;;-2.59;50.54;97201.66;5050390;28;20036;-67
2022/03/19 02:09:34;;;;;;;23.80;14.18;;;;;;;-2.61;51.03;97205.81;5050319;28;20032;-66
2022/03/19 02:12:00;;;;;;;28.83;16.58;;;;;;;-2.54;50.64;97201.75;5050130;28;20128;-67
2022/03/19 02:14:26;;;;;;;26.95;16.20;;;;;;;-2.82;50.22;97159.81;5050034;28;20049;-65
2022/03/19 02:16:53;;;;;;;21.95;14.88;;;;;;;-2.85;50.63;97159.78;5049581;28;20496;-65
2022/03/19 02:19:18;;;;;;;24.13;15.48;;;;;;;-2.59;50.11;97203.31;5049941;28;20136;-65
2022/03/19 02:21:47;;;;;;;25.75;14.57;;;;;;;-2.62;50.46;97195.66;5050140;28;20115;-66
2022/03/19 02:26:59;;;;;;;22.27;12.68;;;;;;;-2.70;50.40;97199.69;5050161;28;20039;-67
2022/03/19 02:29:25;;;;;;;24.15;14.10;;;;;;;-2.77;50.30;97198.69;5049581;28;20031;-65
2022/03/19 02:31:54;;;;;;;21.65;13.90;;;;;;;-2.97;50.14;97166.25;5049112;28;20244;-66
2022/03/19 02:34:20;;;;;;;25.65;14.27;;;;;;;-2.77;50.45;97183.53;5049722;28;20029;-65
2022/03/19 02:36:45;;;;;;;20.55;13.13;;;;;;;-2.71;50.00;97193.75;5049614;28;20545;-64
2022/03/19 02:39:16;;;;;;;21.23;12.90;;;;;;;-2.77;50.35;97194.47;5049218;28;20464;-66
2022/03/19 02:41:46;;;;;;;19.52;12.75;;;;;;;-2.89;49.65;97175.66;5049410;28;20036;-64
2022/03/19 02:44:12;;;;;;;22.70;14.02;;;;;;;-2.84;50.69;97204.38;5048655;28;20032;-66
2022/03/19 02:46:44;;;;;;;29.92;17.55;;;;;;;-2.97;52.17;97188.09;5049834;28;20029;-63
2022/03/19 02:49:09;;;;;;;25.13;16.30;;;;;;;-2.84;52.33;97214.50;5049476;28;20086;-64
2022/03/19 02:51:37;;;;;;;30.73;16.83;;;;;;;-2.87;52.68;97207.72;5049493;28;20029;-64
2022/03/19 02:54:08;;;;;;;31.30;18.67;;;;;;;-2.90;52.41;97207.63;5049244;28;20744;-64
2022/03/19 02:56:36;;;;;;;33.78;19.77;;;;;;;-2.92;52.17;97209.25;5049580;28;20043;-64
2022/03/19 02:59:06;;;;;;;30.95;19.80;;;;;;;-2.90;52.26;97210.16;5049194;28;20033;-68
2022/03/19 03:01:32;;;;;;;27.85;16.75;;;;;;;-2.93;52.15;97215.13;5046910;28;20138;-63
2022/03/19 03:03:58;;;;;;;29.58;19.05;;;;;;;-2.89;51.88;97216.91;5035021;28;20052;-62
2022/03/19 03:06:24;;;;;;;23.40;14.88;;;;;;;-3.30;52.48;97181.38;5037256;28;20033;-62
2022/03/19 03:08:50;;;;;;;23.33;15.07;;;;;;;-3.02;51.97;97218.25;5039893;28;20028;-62
2022/03/19 03:11:15;;;;;;;26.10;17.58;;;;;;;-3.05;52.71;97219.84;5045711;28;20058;-65
2022/03/19 03:13:41;;;;;;;26.42;16.20;;;;;;;-3.17;52.46;97213.66;5048706;28;20095;-63
2022/03/19 03:16:06;;;;;;;28.25;16.02;;;;;;;-3.22;52.91;97199.25;5048738;28;20037;-64
2022/03/19 03:18:32;;;;;;;28.77;16.88;;;;;;;-3.15;52.72;97223.81;5048945;28;20025;-64
2022/03/19 03:20:59;;;;;;;28.23;18.70;;;;;;;-3.21;53.19;97218.63;5049005;28;20056;-64
2022/03/19 03:23:26;;;;;;;28.08;17.30;;;;;;;-3.25;53.31;97216.81;5049027;28;20118;-65
2022/03/19 03:25:52;;;;;;;25.52;16.77;;;;;;;-3.31;53.34;97220.06;5048758;28;20036;-66
2022/03/19 03:28:18;;;;;;;28.73;17.10;;;;;;;-3.90;54.03;97112.56;5048486;28;20030;-64
2022/03/19 03:30:43;;;;;;;26.67;17.90;;;;;;;-3.29;54.10;97217.56;5048665;28;20467;-67
2022/03/19 03:33:08;;;;;;;30.35;17.50;;;;;;;-3.27;54.28;97221.81;5048873;28;20021;-66
2022/03/19 03:35:34;;;;;;;30.23;16.88;;;;;;;-3.34;53.59;97208.19;5048590;28;20032;-66
2022/03/19 03:38:00;;;;;;;29.60;15.77;;;;;;;-3.25;53.69;97220.19;5048703;28;20037;-66
2022/03/19 03:40:25;;;;;;;22.60;14.05;;;;;;;-3.45;52.58;97168.38;5048099;28;20071;-65
2022/03/19 03:42:51;;;;;;;21.92;13.32;;;;;;;-3.34;52.37;97177.06;5048570;28;20033;-65
2022/03/19 03:45:18;;;;;;;20.17;14.27;;;;;;;-3.99;51.85;97094.66;5048335;28;20435;-66
2022/03/19 03:47:44;;;;;;;21.42;12.40;;;;;;;-3.60;52.14;97166.28;5048729;28;20372;-67
2022/03/19 03:50:09;;;;;;;19.02;12.18;;;;;;;-3.54;51.77;97176.56;5048827;28;20032;-64
2022/03/19 03:52:36;;;;;;;20.45;14.65;;;;;;;-3.30;51.98;97221.75;5047858;28;20029;-65
2022/03/19 03:55:03;;;;;;;17.58;12.60;;;;;;;-3.36;52.19;97214.00;5047786;28;20033;-66
2022/03/19 03:57:29;;;;;;;19.85;13.30;;;;;;;-3.53;51.92;97191.69;5048151;28;20417;-65
2022/03/19 03:59:54;;;;;;;20.85;14.48;;;;;;;-3.32;52.67;97223.38;5048109;28;20036;-67
2022/03/19 04:02:20;;;;;;;29.52;18.30;;;;;;;-3.19;53.99;97215.31;5048219;28;20400;-68
2022/03/19 04:04:45;;;;;;;30.52;17.02;;;;;;;-3.19;54.25;97210.25;5047886;28;20060;-65
2022/03/19 04:07:11;;;;;;;31.75;17.60;;;;;;;-3.04;54.75;97214.00;5048235;28;20506;-65
2022/03/19 04:09:36;;;;;;;29.02;18.17;;;;;;;-3.01;54.74;97219.13;5048351;28;20040;-67
2022/03/19 04:12:03;;;;;;;29.52;17.48;;;;;;;-3.49;54.58;97137.16;5048728;28;20086;-67
2022/03/19 04:14:29;;;;;;;26.30;17.95;;;;;;;-3.04;55.16;97216.53;5048708;28;20049;-67
2022/03/19 04:16:55;;;;;;;26.70;18.33;;;;;;;-3.08;55.43;97204.63;5047583;28;20033;-66
2022/03/19 04:19:20;;;;;;;31.42;19.25;;;;;;;-3.37;55.39;97166.91;5048279;28;20090;-63
2022/03/19 04:21:46;;;;;;;26.90;17.42;;;;;;;-3.49;55.37;97143.88;5048324;28;20492;-66
2022/03/19 04:24:11;;;;;;;29.30;18.77;;;;;;;-3.16;55.43;97207.81;5048171;28;20411;-68
2022/03/19 04:26:37;;;;;;;32.65;19.05;;;;;;;-3.11;55.87;97219.72;5048151;28;20032;-66
2022/03/19 04:29:02;;;;;;;29.77;19.05;;;;;;;-3.15;55.57;97222.16;5047655;28;20028;-65
2022/03/19 04:31:28;;;;;;;28.15;17.95;;;;;;;-3.24;55.89;97216.00;5027356;28;20440;-66
2022/03/19 04:33:53;;;;;;;27.65;18.15;;;;;;;-3.26;56.13;97212.56;5027720;28;20033;-66
2022/03/19 04:36:31;;;;;;;29.63;18.63;;;;;;;-3.40;55.80;97187.84;5027733;28;20041;-66
2022/03/19 04:39:02;;;;;;;31.73;18.98;;;;;;;-3.19;55.62;97227.09;5028194;28;20045;-66
2022/03/19 04:41:28;;;;;;;;;;;;;;;-3.29;55.56;97225.13;5027941;28;20033;-69
2022/03/19 04:43:54;;;;;;;31.70;17.05;;;;;;;-3.37;55.82;97217.34;5028080;28;19924;-67
2022/03/19 04:46:19;;;;;;;28.95;18.05;;;;;;;-3.35;55.55;97230.84;5027913;28;20032;-66
2022/03/19 04:48:45;;;;;;;26.38;17.85;;;;;;;-3.35;56.11;97226.66;5027788;28;20026;-67
2022/03/19 04:51:17;;;;;;;28.48;17.42;;;;;;;-3.56;55.68;97176.50;5028000;28;20072;-68
2022/03/19 04:53:50;;;;;;;22.92;16.40;;;;;;;-3.51;55.03;97176.59;5027599;28;20084;-66
2022/03/19 04:56:20;;;;;;;25.38;15.32;;;;;;;-3.71;54.40;97159.28;5027924;28;20038;-66
2022/03/19 04:58:46;;;;;;;24.92;14.38;;;;;;;-3.68;54.03;97180.38;5027906;28;20056;-66
2022/03/19 05:01:12;;;;;;;21.63;13.77;;;;;;;-3.46;53.84;97224.66;5027851;28;20563;-68
2022/03/19 05:03:37;;;;;;;20.45;12.65;;;;;;;-3.51;54.47;97229.56;5027942;28;20053;-64
2022/03/19 05:06:03;;;;;;;21.25;11.95;;;;;;;-3.23;53.60;97211.00;5028750;28;20022;-65
2022/03/19 05:08:28;;;;;;;18.60;11.93;;;;;;;-3.08;53.21;97219.78;5031586;28;20025;-64
2022/03/19 05:11:12;;;;;;;22.02;13.88;;;;;;;-3.22;53.07;97210.19;5031717;28;20017;-65
2022/03/19 05:13:43;;;;;;;19.27;12.00;;;;;;;-3.37;53.56;97200.53;5031225;28;20675;-63
2022/03/19 05:16:08;;;;;;;20.40;12.13;;;;;;;-3.11;52.76;97227.28;5030949;28;20476;-66
2022/03/19 05:18:33;;;;;;;20.42;13.50;;;;;;;-3.21;52.66;97218.63;5031370;28;20034;-64
2022/03/19 05:20:59;;;;;;;23.23;11.68;;;;;;;-3.09;52.51;97226.50;5031217;28;20033;-65
2022/03/19 05:23:25;;;;;;;17.60;11.52;;;;;;;-3.12;52.36;97218.00;5031239;28;20532;-67
2022/03/19 05:25:52;;;;;;;21.48;11.00;;;;;;;-3.14;51.49;97196.09;5031337;28;20718;-67
2022/03/19 05:28:17;;;;;;;17.02;11.88;;;;;;;-3.20;51.40;97187.50;5030712;28;20121;-66
2022/03/19 05:30:43;;;;;;;20.00;12.40;;;;;;;-3.05;51.08;97199.66;5031208;28;20100;-67
2022/03/19 05:33:08;;;;;;;21.98;12.75;;;;;;;-2.82;50.97;97240.63;5031421;28;20029;-66
2022/03/19 05:35:34;;;;;;;22.63;13.07;;;;;;;-2.92;51.01;97224.38;5030829;28;20495;-65
2022/03/19 05:38:00;;;;;;;21.20;12.13;;;;;;;-3.08;50.80;97202.97;5029874;28;20032;-66
2022/03/19 05:40:28;;;;;;;23.25;13.82;;;;;;;-2.73;50.97;97238.34;5030696;28;20033;-65
2022/03/19 05:42:53;;;;;;;21.27;13.40;;;;;;;-2.61;50.60;97227.66;5031334;28;20040;-66
2022/03/19 05:45:20;;;;;;;20.55;12.85;;;;;;;-2.53;49.87;97217.75;5031343;28;20030;-67
2022/03/19 05:47:46;;;;;;;19.35;11.98;;;;;;;-2.68;50.16;97205.63;5031385;28;20523;-64
2022/03/19 05:50:12;;;;;;;21.15;13.65;;;;;;;-2.31;49.63;97239.31;5030796;28;20020;-64
2022/03/19 05:52:39;;;;;;;20.17;12.10;;;;;;;-2.35;48.83;97217.34;5030703;28;20034;-69
2022/03/19 05:55:06;;;;;;;17.85;12.23;;;;;;;-2.23;48.86;97237.81;5030787;28;20024;-66
2022/03/19 05:57:32;;;;;;;22.15;14.02;;;;;;;-2.34;49.43;97226.63;5029622;28;20490;-66
2022/03/19 05:59:57;;;;;;;22.83;13.98;;;;;;;-2.01;48.94;97238.31;5030808;28;20056;-63
2022/03/19 06:02:22;;;;;;;37.92;14.02;;;;;;;-1.83;48.41;97235.34;5030493;28;20040;-67
2022/03/19 06:04:48;;;;;;;24.45;13.57;;;;;;;-1.70;47.68;97243.19;5029856;28;20040;-68
2022/03/19 06:07:13;;;;;;;24.55;14.80;;;;;;;-1.62;47.34;97235.75;5030397;28;20108;-68
2022/03/19 06:09:39;;;;;;;25.00;15.93;;;;;;;-1.64;47.83;97229.84;5030291;28;20025;-66
2022/03/19 06:12:04;;;;;;;28.45;15.88;;;;;;;-1.41;47.44;97235.34;5028964;28;20025;-67
2022/03/19 06:14:30;;;;;;;27.77;18.05;;;;;;;-1.34;46.99;97233.78;5030015;28;20467;-64
2022/03/19 06:16:55;;;;;;;28.63;16.90;;;;;;;-1.24;46.80;97237.34;5029438;28;20030;-66
2022/03/19 06:19:21;;;;;;;40.53;17.55;;;;;;;-1.29;46.88;97224.59;5029859;28;20033;-66
2022/03/19 06:21:47;;;;;;;25.38;16.90;;;;;;;-1.34;46.85;97203.41;5030078;28;20508;-64
2022/03/19 06:24:12;;;;;;;27.45;17.52;;;;;;;-1.14;46.07;97224.88;5030065;28;20039;-67
2022/03/19 06:26:38;;;;;;;24.85;15.68;;;;;;;-1.10;46.10;97233.38;5030190;28;20041;-66
2022/03/19 06:29:04;;;;;;;24.65;16.65;;;;;;;-1.13;46.30;97239.25;5029596;28;20428;-67
2022/03/19 06:31:30;;;;;;;26.65;17.23;;;;;;;-1.32;46.26;97187.41;5029892;28;20090;-67
2022/03/19 06:33:55;;;;;;;34.63;18.83;;;;;;;-0.85;46.74;97228.72;5030151;28;20025;-68
2022/03/19 06:39:05;;;;;;;29.92;19.20;;;;;;;-0.87;46.24;97228.72;5030271;28;20151;-67
2022/03/19 06:41:31;;;;;;;33.17;18.98;;;;;;;-0.98;45.91;97231.06;5029227;28;20128;-67
2022/03/19 06:43:56;;;;;;;26.52;18.80;;;;;;;-0.93;46.60;97221.03;5027894;28;20434;-67
2022/03/19 06:46:22;;;;;;;30.23;18.88;;;;;;;-0.57;45.97;97233.44;5029705;28;20108;-68
2022/03/19 06:48:49;;;;;;;29.42;19.55;;;;;;;-0.29;44.80;97236.41;5029742;28;20117;-65
2022/03/19 06:51:15;;;;;;;26.73;17.63;;;;;;;-0.45;43.59;97199.84;5029751;28;20819;-67
2022/03/19 06:53:41;;;;;;;26.90;16.45;;;;;;;-0.25;44.00;97239.84;5029120;28;20112;-67
2022/03/19 06:56:07;;;;;;;28.77;17.85;;;;;;;-0.30;43.63;97198.38;5030088;28;20025;-69
2022/03/19 06:58:33;;;;;;;25.45;18.02;;;;;;;-0.13;43.17;97223.94;5030297;28;20069;-67
2022/03/19 07:01:00;;;;;;;27.20;16.23;;;;;;;-0.25;42.72;97192.50;5029775;28;20057;-71
2022/03/19 07:03:25;;;;;;;31.88;19.77;;;;;;;-0.66;43.32;97126.84;5029656;28;20025;-70
2022/03/19 07:05:51;;;;;;;27.13;19.52;;;;;;;-0.04;42.97;97216.47;5028139;28;20048;-68
2022/03/19 07:08:16;;;;;;;30.00;19.45;;;;;;;-0.14;42.37;97169.00;5029969;28;20083;-68
2022/03/19 07:10:42;;;;;;;30.00;18.27;;;;;;;0.31;42.00;97218.63;5029030;28;20033;-68
2022/03/19 07:13:07;;;;;;;26.50;16.67;;;;;;;0.39;41.42;97208.56;5028909;28;20029;-66
2022/03/19 07:15:33;;;;;;;24.33;17.15;;;;;;;0.53;41.07;97210.44;5029354;28;20381;-71
2022/03/19 07:18:00;;;;;;;23.83;14.40;;;;;;;0.80;46.58;97201.41;5029006;28;20036;-73
2022/03/19 07:20:27;;;;;;;22.02;14.45;;;;;;;0.62;40.89;97186.00;5028832;28;20033;-70
2022/03/19 07:23:01;;;;;;;23.50;15.15;;;;;;;0.19;41.65;97100.06;5029015;28;20033;-74
2022/03/19 07:25:29;;;;;;;21.70;14.73;;;;;;;1.18;38.99;97197.53;5029081;28;20454;-67
2022/03/19 07:27:56;;;;;;;29.70;15.80;;;;;;;0.88;38.92;97184.56;5028857;28;20109;-65
2022/03/19 07:30:22;;;;;;;22.80;14.70;;;;;;;0.96;39.20;97181.25;5027703;28;20091;-67
2022/03/19 07:32:48;;;;;;;21.17;15.93;;;;;;;1.08;39.17;97194.06;5028334;28;20033;-64
2022/03/19 07:35:14;;;;;;;22.77;15.80;;;;;;;1.24;39.30;97195.06;5034051;28;20032;-66
2022/03/19 07:37:44;;;;;;;26.58;17.65;;;;;;;0.89;39.94;97132.94;5039376;28;20036;-62
2022/03/19 07:40:15;;;;;;;25.45;17.33;;;;;;;1.41;39.33;97207.91;5035122;28;20512;-65
2022/03/19 07:42:41;;;;;;;27.13;16.10;;;;;;;1.44;39.20;97198.63;5027754;28;20029;-66
2022/03/19 07:45:07;;;;;;;24.98;15.68;;;;;;;1.49;38.27;97159.66;5027621;28;20042;-64
2022/03/19 07:47:34;;;;;;;29.05;17.52;;;;;;;1.90;38.08;97192.97;5025042;28;20021;-67
2022/03/19 07:50:01;;;;;;;24.08;16.60;;;;;;;1.83;37.75;97173.44;5027368;28;20045;-68
2022/03/19 07:52:27;;;;;;;25.38;16.30;;;;;;;2.12;37.00;97203.31;5027763;28;20025;-65
2022/03/19 07:54:54;;;;;;;30.48;16.58;;;;;;;2.18;36.61;97205.84;5025726;28;20037;-68
2022/03/19 07:57:22;;;;;;;23.30;15.98;;;;;;;2.21;37.03;97205.88;5025943;28;20029;-66
2022/03/19 07:59:47;;;;;;;23.25;15.48;;;;;;;2.29;36.11;97175.38;5025717;28;20112;-66
2022/03/19 08:02:13;;;;;;;24.45;14.35;;;;;;;2.51;36.10;97197.53;5029788;28;20037;-67
2022/03/19 08:04:39;;;;;;;22.05;14.60;;;;;;;2.55;35.89;97191.59;5029590;28;20029;-66
2022/03/19 08:07:04;;;;;;;22.33;15.05;;;;;;;2.43;35.03;97143.19;5026906;28;20103;-65
2022/03/19 08:09:29;;;;;;;27.27;16.30;;;;;;;2.70;35.49;97177.22;5038363;28;20077;-68
2022/03/19 08:11:56;;;;;;;24.35;16.45;;;;;;;2.84;34.39;97198.47;5031341;28;20172;-66
2022/03/19 08:14:22;;;;;;;19.63;12.93;;;;;;;2.83;33.81;97171.28;5034186;28;20053;-66
2022/03/19 08:16:47;;;;;;;18.50;13.07;;;;;;;3.00;33.34;97148.41;5023774;28;20022;-67
2022/03/19 08:19:13;;;;;;;18.55;13.27;;;;;;;3.20;32.51;97162.81;5027618;28;20029;-67
2022/03/19 08:21:40;;;;;;;23.42;15.10;;;;;;;2.73;32.84;97080.41;5032555;28;20037;-64
2022/03/19 08:24:07;;;;;;;20.65;12.93;;;;;;;3.28;32.37;97163.69;5033514;28;20506;-64
2022/03/19 08:26:33;;;;;;;19.60;12.55;;;;;;;3.27;31.76;97162.00;5026045;28;20397;-67
2022/03/19 08:28:59;;;;;;;21.60;12.88;;;;;;;3.34;32.03;97162.84;5027543;28;20544;-66
2022/03/19 08:31:25;;;;;;;15.70;12.65;;;;;;;3.55;31.70;97182.41;5027197;28;20031;-64
2022/03/19 08:33:52;;;;;;;18.55;13.27;;;;;;;3.60;31.26;97158.56;5029861;28;20033;-65
2022/03/19 08:36:17;;;;;;;16.55;12.15;;;;;;;3.53;31.31;97135.63;5029064;28;20026;-66
2022/03/19 08:41:27;;;;;;;20.25;12.77;;;;;;;4.01;31.11;97164.44;5031556;28;20414;-66
2022/03/19 08:43:52;;;;;;;19.35;12.98;;;;;;;3.86;30.82;97127.91;5031445;28;20029;-65
2022/03/19 08:46:19;;;;;;;17.30;12.48;;;;;;;4.24;30.81;97169.47;5030518;28;20068;-69
2022/03/19 08:48:45;;;;;;;20.15;14.05;;;;;;;4.45;31.14;97160.88;5036096;28;20052;-63
2022/03/19 08:53:54;;;;;;;12.77;9.20;;;;;;;4.26;29.07;97131.16;5028864;28;20040;-67
2022/03/19 08:56:20;;;;;;;17.15;11.55;;;;;;;4.44;28.85;97161.72;5028649;28;20024;-66
2022/03/19 08:58:46;;;;;;;16.83;11.60;;;;;;;4.41;29.72;97151.53;5029821;28;20505;-67
2022/03/19 09:01:11;;;;;;;17.98;10.63;;;;;;;4.44;29.23;97140.47;5028338;28;20075;-63
2022/03/19 09:03:37;;;;;;;15.57;10.45;;;;;;;4.94;28.88;97154.66;5031011;28;20052;-67
2022/03/19 09:06:03;;;;;;;14.25;11.52;;;;;;;7.98;25.92;97123.47;5036702;28;20035;-68
2022/03/19 09:08:28;;;;;;;18.38;11.07;;;;;;;10.05;22.99;97118.75;5029787;28;20114;-66
2022/03/19 09:10:56;;;;;;;17.08;12.32;;;;;;;13.04;20.49;97103.72;5026229;28;20068;-67
2022/03/19 09:13:21;;;;;;;17.77;12.40;;;;;;;14.55;18.27;97112.09;5031928;28;20056;-66
2022/03/19 09:15:47;;;;;;;13.52;11.35;;;;;;;15.05;17.04;97098.53;5043254;28;20029;-69
2022/03/19 09:18:12;;;;;;;14.32;11.00;;;;;;;12.02;18.61;97070.47;5040806;28;20033;-65
2022/03/19 09:20:38;;;;;;;13.68;10.15;;;;;;;11.92;19.42;97116.47;5027940;28;20044;-67
2022/03/19 09:23:03;;;;;;;14.75;11.30;;;;;;;13.40;18.21;97105.78;5027877;28;20037;-68
2022/03/19 09:25:29;;;;;;;17.10;12.75;;;;;;;16.05;16.47;97098.78;5027174;28;20140;-67
2022/03/19 09:27:55;;;;;;;15.32;11.57;;;;;;;16.71;15.98;97040.59;5027081;28;20040;-68
2022/03/19 09:30:20;;;;;;;16.45;12.40;;;;;;;18.21;15.05;97096.41;5031138;28;20040;-68
2022/03/19 09:32:46;;;;;;;15.93;12.63;;;;;;;19.33;13.73;97094.59;5027446;28;20041;-66
2022/03/19 09:35:11;;;;;;;15.77;12.07;;;;;;;18.19;14.74;97093.88;5029498;28;20029;-69
2022/03/19 09:37:37;;;;;;;16.42;13.30;;;;;;;15.74;16.02;97095.16;5027696;28;20034;-67
2022/03/19 09:40:04;;;;;;;21.40;14.05;;;;;;;14.32;17.42;97108.78;5034917;28;20060;-68
2022/03/19 09:42:29;;;;;;;14.07;10.65;;;;;;;12.19;18.84;97117.25;5041284;28;20032;-66
2022/03/19 09:44:55;;;;;;;14.88;10.40;;;;;;;10.81;20.20;97105.41;5027935;28;20047;-66
2022/03/19 09:47:21;;;;;;;15.07;10.95;;;;;;;11.01;20.25;97109.13;5026963;28;20041;-66
2022/03/19 09:49:46;;;;;;;13.13;10.23;;;;;;;12.88;17.56;97005.91;5027328;28;20029;-67
2022/03/19 09:52:12;;;;;;;15.07;10.20;;;;;;;12.14;18.70;97114.81;5026212;28;20036;-68
2022/03/19 09:54:39;;;;;;;18.63;12.88;;;;;;;11.36;20.39;97074.44;5027720;28;20037;-65
2022/03/19 09:57:05;;;;;;;19.52;13.13;;;;;;;15.86;16.81;97111.91;5026581;28;20850;-68
2022/03/19 09:59:35;;;;;;;24.42;13.48;;;;;;;14.59;16.89;97103.25;5027358;28;20089;-67
2022/03/19 10:02:05;;;;;;;14.50;11.57;;;;;;;18.30;14.14;97070.56;5026386;28;20040;-67
2022/03/19 10:04:31;;;;;;;15.32;11.38;;;;;;;20.21;12.97;97086.16;5026159;28;20040;-68
2022/03/19 10:09:47;;;;;;;14.60;10.52;;;;;;;20.13;12.70;97077.97;5026392;28;20072;-68
2022/03/19 10:12:20;;;;;;;14.18;11.48;;;;;;;19.75;12.54;97081.41;5026934;28;20462;-68
2022/03/19 10:14:51;;;;;;;21.17;11.70;;;;;;;21.72;11.74;97075.34;5026836;28;20050;-69
2022/03/19 10:17:33;;;;;;;15.18;11.77;;;;;;;22.98;10.90;97082.34;5028376;28;20808;-67
2022/03/19 10:20:05;;;;;;;11.85;9.98;;;;;;;24.44;9.96;97061.47;5026244;28;20769;-71
2022/03/19 10:22:31;;;;;;;12.73;10.40;;;;;;;23.54;9.74;97040.00;5026580;28;20033;-65
2022/03/19 10:25:04;;;;;;;11.52;9.70;;;;;;;19.09;12.52;97110.13;5026047;28;20453;-69
2022/03/19 10:27:34;;;;;;;14.02;10.15;;;;;;;16.61;14.33;97086.31;5026691;28;20068;-68
2022/03/19 10:30:03;;;;;;;15.02;10.65;;;;;;;14.42;16.52;97112.63;5027471;28;20115;-70
2022/03/19 10:32:28;;;;;;;14.18;10.23;;;;;;;13.50;17.33;97109.66;5027403;28;20029;-70
2022/03/19 10:34:55;;;;;;;12.38;10.02;;;;;;;13.24;17.17;97124.50;5025643;28;20444;-69
2022/03/19 10:37:39;;;;;;;13.48;10.75;;;;;;;17.86;14.35;97094.09;5034846;28;20029;-72
2022/03/19 10:40:08;;;;;;;12.68;10.30;;;;;;;20.36;12.21;97076.38;5033844;28;20036;-69
2022/03/19 10:42:41;;;;;;;15.05;11.63;;;;;;;21.83;11.51;97072.75;5027880;28;20072;-69
2022/03/19 10:45:08;;;;;;;9.75;7.47;;;;;;;20.04;11.91;97078.59;5037533;28;20033;-69
2022/03/19 10:47:44;;;;;;;11.57;9.70;;;;;;;22.37;10.72;97073.09;5038686;28;20041;-67
2022/03/19 10:50:16;;;;;;;14.50;9.95;;;;;;;22.34;10.60;97065.44;5025202;28;20036;-68
2022/03/19 10:52:43;;;;;;;12.68;9.65;;;;;;;22.28;11.05;97058.00;5025005;28;20404;-69
2022/03/19 10:55:09;;;;;;;11.80;9.10;;;;;;;22.37;10.72;97046.81;5025271;28;20590;-67
2022/03/19 10:57:35;;;;;;;10.80;8.68;;;;;;;20.54;11.59;97074.25;5028244;28;20115;-64
2022/03/19 11:00:01;;;;;;;14.25;9.60;;;;;;;22.10;11.22;97074.22;5024983;28;20022;-69
2022/03/19 11:02:28;;;;;;;12.25;9.32;;;;;;;22.66;10.68;97056.78;5025757;28;20025;-68
2022/03/19 11:04:54;;;;;;;15.48;10.13;;;;;;;22.70;10.74;97068.75;5027315;28;20543;-66
2022/03/19 11:07:24;;;;;;;11.73;8.90;;;;;;;22.38;10.67;97072.97;5036376;28;20029;-66
2022/03/19 11:09:55;;;;;;;13.27;9.23;;;;;;;22.30;10.19;97058.75;5031391;28;20460;-70
2022/03/19 11:12:25;;;;;;;11.50;9.45;;;;;;;22.27;10.87;97040.53;5025313;28;20032;-66
2022/03/19 11:14:53;;;;;;;14.23;10.00;;;;;;;23.43;10.20;97035.66;5026701;28;20468;-68
2022/03/19 11:17:28;;;;;;;14.98;10.98;;;;;;;23.82;9.87;97057.00;5024939;28;20029;-71
2022/03/19 11:20:02;;;;;;;13.32;9.50;;;;;;;24.16;9.55;97048.03;5025484;28;20650;-69
2022/03/19 11:22:39;;;;;;;12.82;9.98;;;;;;;23.26;10.36;97031.78;5024737;28;20117;-70
2022/03/19 11:25:40;;;;;;;11.68;9.63;;;;;;;23.30;10.49;97056.03;5028839;28;20036;-67
2022/03/19 11:28:08;;;;;;;10.48;8.85;;;;;;;23.11;10.61;97057.56;5039203;28;20070;-68
2022/03/19 11:30:37;;;;;;;10.57;8.95;;;;;;;22.93;10.35;97007.25;5040036;28;20044;-67